sensor_id;sensor_type;location;lat;lon;timestamp;temperature;humidity
22925;DHT22;11628;51.072;3.712;2023-01-25T00:02:25;3.70;99.90
22925;DHT22;11628;51.072;3.712;2023-01-25T00:04:51;3.90;99.90
22925;DHT22;11628;51.072;3.712;2023-01-25T00:07:16;4.00;99.90
22925;DHT22;11628;51.072;3.712;2023-01-25T00:09:42;4.00;99.90
22925;DHT22;11628;51.072;3.712;2023-01-25T00:12:08;4.20;99.90
22925;DHT22;11628;51.072;3.712;2023-01-25T00:14:34;4.30;99.90
22925;DHT22;11628;51.072;3.712;2023-01-25T00:17:00;4.40;99.90
22925;DHT22;11628;51.072;3.712;2023-01-25T00:19:27;4.40;99.90
22925;DHT22;11628;51.072;3.712;2023-01-25T00:21:53;4.40;99.90
22925;DHT22;11628;51.072;3.712;2023-01-25T00:24:19;4.30;99.90
22925;DHT22;11628;51.072;3.712;2023-01-25T00:26:47;4.30;99.90
22925;DHT22;11628;51.072;3.712;2023-01-25T00:29:14;4.20;99.90
22925;DHT22;11628;51.072;3.712;2023-01-25T00:31:43;4.20;99.90
22925;DHT22;11628;51.072;3.712;2023-01-25T00:36:56;4.30;99.90
22925;DHT22;11628;51.072;3.712;2023-01-25T00:39:24;4.40;99.90
22925;DHT22;11628;51.072;3.712;2023-01-25T00:41:50;4.20;99.90
22925;DHT22;11628;51.072;3.712;2023-01-25T00:44:16;4.30;99.90
22925;DHT22;11628;51.072;3.712;2023-01-25T00:46:42;4.40;99.90
22925;DHT22;11628;51.072;3.712;2023-01-25T00:49:22;4.50;99.90
22925;DHT22;11628;51.072;3.712;2023-01-25T00:51:49;4.50;99.90
22925;DHT22;11628;51.072;3.712;2023-01-25T00:54:16;4.50;99.90
22925;DHT22;11628;51.072;3.712;2023-01-25T00:56:42;4.40;99.90
22925;DHT22;11628;51.072;3.712;2023-01-25T00:59:09;4.50;99.90
22925;DHT22;11628;51.072;3.712;2023-01-25T01:01:40;4.60;99.90
22925;DHT22;11628;51.072;3.712;2023-01-25T01:04:07;4.40;99.90
22925;DHT22;11628;51.072;3.712;2023-01-25T01:06:39;4.10;99.90
22925;DHT22;11628;51.072;3.712;2023-01-25T01:09:10;4.00;99.90
22925;DHT22;11628;51.072;3.712;2023-01-25T01:11:44;4.00;99.90
22925;DHT22;11628;51.072;3.712;2023-01-25T01:14:12;4.10;99.90
22925;DHT22;11628;51.072;3.712;2023-01-25T01:16:38;4.10;99.90
22925;DHT22;11628;51.072;3.712;2023-01-25T01:19:04;4.30;99.90
22925;DHT22;11628;51.072;3.712;2023-01-25T01:21:30;4.30;99.90
22925;DHT22;11628;51.072;3.712;2023-01-25T01:23:56;4.20;99.90
22925;DHT22;11628;51.072;3.712;2023-01-25T01:26:22;4.00;99.90
22925;DHT22;11628;51.072;3.712;2023-01-25T01:28:49;3.90;99.90
22925;DHT22;11628;51.072;3.712;2023-01-25T01:31:17;3.90;99.90
22925;DHT22;11628;51.072;3.712;2023-01-25T01:33:43;3.90;99.90
22925;DHT22;11628;51.072;3.712;2023-01-25T01:36:12;4.00;99.90
22925;DHT22;11628;51.072;3.712;2023-01-25T01:38:38;3.90;99.90
22925;DHT22;11628;51.072;3.712;2023-01-25T01:41:04;3.80;99.90
22925;DHT22;11628;51.072;3.712;2023-01-25T01:43:31;3.60;99.90
22925;DHT22;11628;51.072;3.712;2023-01-25T01:45:59;3.40;99.90
22925;DHT22;11628;51.072;3.712;2023-01-25T01:50:54;3.20;99.90
22925;DHT22;11628;51.072;3.712;2023-01-25T01:53:23;3.30;99.90
22925;DHT22;11628;51.072;3.712;2023-01-25T01:55:52;3.30;99.90
22925;DHT22;11628;51.072;3.712;2023-01-25T01:58:19;3.40;99.90
22925;DHT22;11628;51.072;3.712;2023-01-25T02:00:45;3.50;99.90
22925;DHT22;11628;51.072;3.712;2023-01-25T02:03:12;3.50;99.90
22925;DHT22;11628;51.072;3.712;2023-01-25T02:05:59;3.70;99.90
22925;DHT22;11628;51.072;3.712;2023-01-25T02:08:27;3.70;99.90
22925;DHT22;11628;51.072;3.712;2023-01-25T02:10:55;3.50;99.90
22925;DHT22;11628;51.072;3.712;2023-01-25T02:13:21;3.50;99.90
22925;DHT22;11628;51.072;3.712;2023-01-25T02:15:50;3.60;99.90
22925;DHT22;11628;51.072;3.712;2023-01-25T02:18:17;3.60;99.90
22925;DHT22;11628;51.072;3.712;2023-01-25T02:20:55;3.70;99.90
22925;DHT22;11628;51.072;3.712;2023-01-25T02:25:59;3.70;99.90
22925;DHT22;11628;51.072;3.712;2023-01-25T02:31:03;3.40;99.90
22925;DHT22;11628;51.072;3.712;2023-01-25T02:33:29;3.30;99.90
22925;DHT22;11628;51.072;3.712;2023-01-25T02:35:59;3.30;99.90
22925;DHT22;11628;51.072;3.712;2023-01-25T02:38:41;3.30;99.90
22925;DHT22;11628;51.072;3.712;2023-01-25T02:43:38;3.40;99.90
22925;DHT22;11628;51.072;3.712;2023-01-25T02:46:14;3.50;99.90
22925;DHT22;11628;51.072;3.712;2023-01-25T02:48:42;3.50;99.90
22925;DHT22;11628;51.072;3.712;2023-01-25T02:51:09;3.40;99.90
22925;DHT22;11628;51.072;3.712;2023-01-25T02:53:35;3.30;99.90
22925;DHT22;11628;51.072;3.712;2023-01-25T02:56:01;3.30;99.90
22925;DHT22;11628;51.072;3.712;2023-01-25T02:58:27;3.10;99.90
22925;DHT22;11628;51.072;3.712;2023-01-25T03:00:54;3.10;99.90
22925;DHT22;11628;51.072;3.712;2023-01-25T03:03:20;3.20;99.90
22925;DHT22;11628;51.072;3.712;2023-01-25T03:05:46;3.10;99.90
22925;DHT22;11628;51.072;3.712;2023-01-25T03:08:12;3.10;99.90
22925;DHT22;11628;51.072;3.712;2023-01-25T03:10:37;3.10;99.90
22925;DHT22;11628;51.072;3.712;2023-01-25T03:13:03;3.20;99.90
22925;DHT22;11628;51.072;3.712;2023-01-25T03:15:29;3.20;99.90
22925;DHT22;11628;51.072;3.712;2023-01-25T03:17:55;3.20;99.90
22925;DHT22;11628;51.072;3.712;2023-01-25T03:20:22;3.30;99.90
22925;DHT22;11628;51.072;3.712;2023-01-25T03:22:48;3.20;99.90
22925;DHT22;11628;51.072;3.712;2023-01-25T03:25:14;3.20;99.90
22925;DHT22;11628;51.072;3.712;2023-01-25T03:27:40;3.20;99.90
22925;DHT22;11628;51.072;3.712;2023-01-25T03:30:07;3.20;99.90
22925;DHT22;11628;51.072;3.712;2023-01-25T03:32:33;3.10;99.90
22925;DHT22;11628;51.072;3.712;2023-01-25T03:34:59;3.10;99.90
22925;DHT22;11628;51.072;3.712;2023-01-25T03:37:25;3.10;99.90
22925;DHT22;11628;51.072;3.712;2023-01-25T03:39:55;3.20;99.90
22925;DHT22;11628;51.072;3.712;2023-01-25T03:42:21;3.30;99.90
22925;DHT22;11628;51.072;3.712;2023-01-25T03:44:46;3.40;99.90
22925;DHT22;11628;51.072;3.712;2023-01-25T03:47:13;3.40;99.90
22925;DHT22;11628;51.072;3.712;2023-01-25T03:49:39;3.50;99.90
22925;DHT22;11628;51.072;3.712;2023-01-25T03:52:05;3.50;99.90
22925;DHT22;11628;51.072;3.712;2023-01-25T03:54:31;3.50;99.90
22925;DHT22;11628;51.072;3.712;2023-01-25T03:56:57;3.30;99.90
22925;DHT22;11628;51.072;3.712;2023-01-25T03:59:23;3.20;99.90
22925;DHT22;11628;51.072;3.712;2023-01-25T04:01:49;3.20;99.90
22925;DHT22;11628;51.072;3.712;2023-01-25T04:04:16;3.00;99.90
22925;DHT22;11628;51.072;3.712;2023-01-25T04:06:42;3.10;99.90
22925;DHT22;11628;51.072;3.712;2023-01-25T04:09:08;3.10;99.90
22925;DHT22;11628;51.072;3.712;2023-01-25T04:11:33;3.10;99.90
22925;DHT22;11628;51.072;3.712;2023-01-25T04:14:00;3.20;99.90
22925;DHT22;11628;51.072;3.712;2023-01-25T04:16:26;3.30;99.90
22925;DHT22;11628;51.072;3.712;2023-01-25T04:18:52;3.40;99.90
22925;DHT22;11628;51.072;3.712;2023-01-25T04:21:18;3.50;99.90
22925;DHT22;11628;51.072;3.712;2023-01-25T04:23:44;3.50;99.90
22925;DHT22;11628;51.072;3.712;2023-01-25T04:26:10;3.60;99.90
22925;DHT22;11628;51.072;3.712;2023-01-25T04:28:38;3.50;99.90
22925;DHT22;11628;51.072;3.712;2023-01-25T04:31:04;3.60;99.90
22925;DHT22;11628;51.072;3.712;2023-01-25T04:33:31;3.60;99.90
22925;DHT22;11628;51.072;3.712;2023-01-25T04:35:57;3.50;99.90
22925;DHT22;11628;51.072;3.712;2023-01-25T04:38:23;3.30;99.90
22925;DHT22;11628;51.072;3.712;2023-01-25T04:40:50;3.10;99.90
22925;DHT22;11628;51.072;3.712;2023-01-25T04:43:17;3.20;99.90
22925;DHT22;11628;51.072;3.712;2023-01-25T04:45:44;3.30;99.90
22925;DHT22;11628;51.072;3.712;2023-01-25T04:48:11;3.20;99.90
22925;DHT22;11628;51.072;3.712;2023-01-25T04:50:38;3.30;99.90
22925;DHT22;11628;51.072;3.712;2023-01-25T04:53:04;3.30;99.90
22925;DHT22;11628;51.072;3.712;2023-01-25T04:55:31;3.40;99.90
22925;DHT22;11628;51.072;3.712;2023-01-25T04:57:57;3.70;99.90
22925;DHT22;11628;51.072;3.712;2023-01-25T05:00:23;3.80;99.90
22925;DHT22;11628;51.072;3.712;2023-01-25T05:02:49;3.80;99.90
22925;DHT22;11628;51.072;3.712;2023-01-25T05:05:15;3.90;99.90
22925;DHT22;11628;51.072;3.712;2023-01-25T05:07:41;3.90;99.90
22925;DHT22;11628;51.072;3.712;2023-01-25T05:10:07;3.90;99.90
22925;DHT22;11628;51.072;3.712;2023-01-25T05:12:33;3.70;99.90
22925;DHT22;11628;51.072;3.712;2023-01-25T05:14:59;3.40;99.90
22925;DHT22;11628;51.072;3.712;2023-01-25T05:17:25;3.40;99.90
22925;DHT22;11628;51.072;3.712;2023-01-25T05:19:51;3.20;99.90
22925;DHT22;11628;51.072;3.712;2023-01-25T05:22:18;3.00;99.90
22925;DHT22;11628;51.072;3.712;2023-01-25T05:24:45;2.80;99.90
22925;DHT22;11628;51.072;3.712;2023-01-25T05:27:14;2.70;99.90
22925;DHT22;11628;51.072;3.712;2023-01-25T05:29:42;2.50;99.90
22925;DHT22;11628;51.072;3.712;2023-01-25T05:32:11;2.50;99.90
22925;DHT22;11628;51.072;3.712;2023-01-25T05:34:38;2.60;99.90
22925;DHT22;11628;51.072;3.712;2023-01-25T05:37:05;2.60;99.90
22925;DHT22;11628;51.072;3.712;2023-01-25T05:39:31;2.70;99.90
22925;DHT22;11628;51.072;3.712;2023-01-25T05:41:57;2.70;99.90
22925;DHT22;11628;51.072;3.712;2023-01-25T05:44:23;2.70;99.90
22925;DHT22;11628;51.072;3.712;2023-01-25T05:46:49;2.70;99.90
22925;DHT22;11628;51.072;3.712;2023-01-25T05:49:16;2.70;99.90
22925;DHT22;11628;51.072;3.712;2023-01-25T05:51:42;2.60;99.90
22925;DHT22;11628;51.072;3.712;2023-01-25T05:54:11;2.50;99.90
22925;DHT22;11628;51.072;3.712;2023-01-25T05:56:37;2.40;99.90
22925;DHT22;11628;51.072;3.712;2023-01-25T05:59:03;2.40;99.90
22925;DHT22;11628;51.072;3.712;2023-01-25T06:01:30;2.40;99.90
22925;DHT22;11628;51.072;3.712;2023-01-25T06:03:56;2.50;99.90
22925;DHT22;11628;51.072;3.712;2023-01-25T06:06:23;2.60;99.90
22925;DHT22;11628;51.072;3.712;2023-01-25T06:08:49;2.60;99.90
22925;DHT22;11628;51.072;3.712;2023-01-25T06:11:19;2.60;99.90
22925;DHT22;11628;51.072;3.712;2023-01-25T06:13:45;2.70;99.90
22925;DHT22;11628;51.072;3.712;2023-01-25T06:16:12;2.80;99.90
22925;DHT22;11628;51.072;3.712;2023-01-25T06:18:38;2.80;99.90
22925;DHT22;11628;51.072;3.712;2023-01-25T06:21:05;2.70;99.90
22925;DHT22;11628;51.072;3.712;2023-01-25T06:23:31;2.70;99.90
22925;DHT22;11628;51.072;3.712;2023-01-25T06:26:02;2.80;99.90
22925;DHT22;11628;51.072;3.712;2023-01-25T06:28:30;2.70;99.90
22925;DHT22;11628;51.072;3.712;2023-01-25T06:31:05;2.70;99.90
22925;DHT22;11628;51.072;3.712;2023-01-25T06:33:32;2.70;99.90
22925;DHT22;11628;51.072;3.712;2023-01-25T06:36:14;2.70;99.90
22925;DHT22;11628;51.072;3.712;2023-01-25T06:38:41;2.70;99.90
22925;DHT22;11628;51.072;3.712;2023-01-25T06:41:10;2.70;99.90
22925;DHT22;11628;51.072;3.712;2023-01-25T06:43:36;2.70;99.90
22925;DHT22;11628;51.072;3.712;2023-01-25T06:46:04;2.70;99.90
22925;DHT22;11628;51.072;3.712;2023-01-25T06:48:31;2.70;99.90
22925;DHT22;11628;51.072;3.712;2023-01-25T06:51:03;2.60;99.90
22925;DHT22;11628;51.072;3.712;2023-01-25T06:53:32;2.60;99.90
22925;DHT22;11628;51.072;3.712;2023-01-25T06:56:09;2.70;99.90
22925;DHT22;11628;51.072;3.712;2023-01-25T06:58:36;2.70;99.90
22925;DHT22;11628;51.072;3.712;2023-01-25T07:01:08;2.70;99.90
22925;DHT22;11628;51.072;3.712;2023-01-25T07:03:35;2.80;99.90
22925;DHT22;11628;51.072;3.712;2023-01-25T07:06:03;2.80;99.90
22925;DHT22;11628;51.072;3.712;2023-01-25T07:08:30;3.00;99.90
22925;DHT22;11628;51.072;3.712;2023-01-25T07:11:02;3.20;99.90
22925;DHT22;11628;51.072;3.712;2023-01-25T07:13:30;3.30;99.90
22925;DHT22;11628;51.072;3.712;2023-01-25T07:16:02;3.50;99.90
22925;DHT22;11628;51.072;3.712;2023-01-25T07:18:30;3.60;99.90
22925;DHT22;11628;51.072;3.712;2023-01-25T07:21:04;3.60;99.90
22925;DHT22;11628;51.072;3.712;2023-01-25T07:23:31;3.80;99.90
22925;DHT22;11628;51.072;3.712;2023-01-25T07:25:58;3.90;99.90
22925;DHT22;11628;51.072;3.712;2023-01-25T07:28:24;4.00;99.90
22925;DHT22;11628;51.072;3.712;2023-01-25T07:30:50;3.90;99.90
22925;DHT22;11628;51.072;3.712;2023-01-25T07:33:16;3.80;99.90
22925;DHT22;11628;51.072;3.712;2023-01-25T07:35:42;3.60;99.90
22925;DHT22;11628;51.072;3.712;2023-01-25T07:38:08;3.30;99.90
22925;DHT22;11628;51.072;3.712;2023-01-25T07:40:35;3.20;99.90
22925;DHT22;11628;51.072;3.712;2023-01-25T07:43:01;3.10;99.90
22925;DHT22;11628;51.072;3.712;2023-01-25T07:45:26;3.00;99.90
22925;DHT22;11628;51.072;3.712;2023-01-25T07:47:56;3.00;99.90
22925;DHT22;11628;51.072;3.712;2023-01-25T07:50:23;3.10;99.90
22925;DHT22;11628;51.072;3.712;2023-01-25T07:52:49;3.30;99.90
22925;DHT22;11628;51.072;3.712;2023-01-25T07:55:14;3.40;99.90
22925;DHT22;11628;51.072;3.712;2023-01-25T07:57:40;3.50;99.90
22925;DHT22;11628;51.072;3.712;2023-01-25T08:00:06;3.60;99.90
22925;DHT22;11628;51.072;3.712;2023-01-25T08:02:34;3.60;99.90
22925;DHT22;11628;51.072;3.712;2023-01-25T08:05:00;3.60;99.90
22925;DHT22;11628;51.072;3.712;2023-01-25T08:07:27;3.70;99.90
22925;DHT22;11628;51.072;3.712;2023-01-25T08:09:53;3.50;99.90
22925;DHT22;11628;51.072;3.712;2023-01-25T08:12:18;3.40;99.90
22925;DHT22;11628;51.072;3.712;2023-01-25T08:14:44;3.40;99.90
22925;DHT22;11628;51.072;3.712;2023-01-25T08:17:11;3.20;99.90
22925;DHT22;11628;51.072;3.712;2023-01-25T08:19:37;3.40;99.90
22925;DHT22;11628;51.072;3.712;2023-01-25T08:22:03;3.60;99.90
22925;DHT22;11628;51.072;3.712;2023-01-25T08:24:31;3.50;99.90
22925;DHT22;11628;51.072;3.712;2023-01-25T08:26:57;3.40;99.90
22925;DHT22;11628;51.072;3.712;2023-01-25T08:29:23;3.70;99.90
22925;DHT22;11628;51.072;3.712;2023-01-25T08:31:50;3.70;99.90
22925;DHT22;11628;51.072;3.712;2023-01-25T08:34:16;3.70;99.90
22925;DHT22;11628;51.072;3.712;2023-01-25T08:36:42;3.50;99.90
22925;DHT22;11628;51.072;3.712;2023-01-25T08:39:11;3.30;99.90
22925;DHT22;11628;51.072;3.712;2023-01-25T08:41:37;3.10;99.90
22925;DHT22;11628;51.072;3.712;2023-01-25T08:44:04;3.20;99.90
22925;DHT22;11628;51.072;3.712;2023-01-25T08:46:31;3.40;99.90
22925;DHT22;11628;51.072;3.712;2023-01-25T08:48:59;3.50;99.90
22925;DHT22;11628;51.072;3.712;2023-01-25T08:51:26;3.50;99.90
22925;DHT22;11628;51.072;3.712;2023-01-25T08:53:52;3.20;99.90
22925;DHT22;11628;51.072;3.712;2023-01-25T08:56:18;2.90;99.90
22925;DHT22;11628;51.072;3.712;2023-01-25T08:58:46;2.90;99.90
22925;DHT22;11628;51.072;3.712;2023-01-25T09:01:14;3.00;99.90
22925;DHT22;11628;51.072;3.712;2023-01-25T09:03:43;3.20;99.90
22925;DHT22;11628;51.072;3.712;2023-01-25T09:06:09;3.40;99.90
22925;DHT22;11628;51.072;3.712;2023-01-25T09:08:36;3.50;99.90
22925;DHT22;11628;51.072;3.712;2023-01-25T09:11:13;3.70;99.90
22925;DHT22;11628;51.072;3.712;2023-01-25T09:13:39;3.80;99.90
22925;DHT22;11628;51.072;3.712;2023-01-25T09:16:10;3.90;99.90
22925;DHT22;11628;51.072;3.712;2023-01-25T09:18:37;4.00;99.90
22925;DHT22;11628;51.072;3.712;2023-01-25T09:21:08;4.20;99.90
22925;DHT22;11628;51.072;3.712;2023-01-25T09:23:35;4.30;99.90
22925;DHT22;11628;51.072;3.712;2023-01-25T09:26:01;4.40;99.90
22925;DHT22;11628;51.072;3.712;2023-01-25T09:28:28;4.40;99.90
22925;DHT22;11628;51.072;3.712;2023-01-25T09:30:59;4.40;99.90
22925;DHT22;11628;51.072;3.712;2023-01-25T09:33:27;4.30;99.90
22925;DHT22;11628;51.072;3.712;2023-01-25T09:35:53;4.30;99.90
22925;DHT22;11628;51.072;3.712;2023-01-25T09:38:19;4.40;99.90
22925;DHT22;11628;51.072;3.712;2023-01-25T09:45:51;4.40;99.90
22925;DHT22;11628;51.072;3.712;2023-01-25T09:48:27;4.50;99.90
22925;DHT22;11628;51.072;3.712;2023-01-25T09:53:35;4.40;99.90
22925;DHT22;11628;51.072;3.712;2023-01-25T09:56:16;4.60;99.90
22925;DHT22;11628;51.072;3.712;2023-01-25T09:58:44;4.60;99.90
22925;DHT22;11628;51.072;3.712;2023-01-25T10:04:00;4.60;99.90
22925;DHT22;11628;51.072;3.712;2023-01-25T10:06:37;4.40;99.90
22925;DHT22;11628;51.072;3.712;2023-01-25T10:11:45;4.10;99.90
22925;DHT22;11628;51.072;3.712;2023-01-25T10:14:14;4.00;99.90
22925;DHT22;11628;51.072;3.712;2023-01-25T10:16:54;3.90;99.90
22925;DHT22;11628;51.072;3.712;2023-01-25T10:19:25;4.10;99.90
22925;DHT22;11628;51.072;3.712;2023-01-25T10:22:00;4.20;99.90
22925;DHT22;11628;51.072;3.712;2023-01-25T10:27:13;4.50;99.90
22925;DHT22;11628;51.072;3.712;2023-01-25T10:29:43;4.60;99.90
22925;DHT22;11628;51.072;3.712;2023-01-25T10:32:25;4.60;99.90
22925;DHT22;11628;51.072;3.712;2023-01-25T10:34:55;4.70;99.90
22925;DHT22;11628;51.072;3.712;2023-01-25T10:37:25;4.70;99.90
22925;DHT22;11628;51.072;3.712;2023-01-25T10:40:01;4.70;99.90
22925;DHT22;11628;51.072;3.712;2023-01-25T10:42:32;4.70;99.90
22925;DHT22;11628;51.072;3.712;2023-01-25T10:45:04;4.70;99.90
22925;DHT22;11628;51.072;3.712;2023-01-25T10:47:35;4.70;99.90
22925;DHT22;11628;51.072;3.712;2023-01-25T10:50:02;4.80;99.90
22925;DHT22;11628;51.072;3.712;2023-01-25T10:52:31;4.80;99.90
22925;DHT22;11628;51.072;3.712;2023-01-25T10:55:19;4.80;99.90
22925;DHT22;11628;51.072;3.712;2023-01-25T10:57:50;4.90;99.90
22925;DHT22;11628;51.072;3.712;2023-01-25T11:00:38;4.80;99.90
22925;DHT22;11628;51.072;3.712;2023-01-25T11:03:05;4.70;99.90
22925;DHT22;11628;51.072;3.712;2023-01-25T11:05:55;4.50;99.90
22925;DHT22;11628;51.072;3.712;2023-01-25T11:08:23;4.30;99.90
22925;DHT22;11628;51.072;3.712;2023-01-25T11:10:51;4.20;99.90
22925;DHT22;11628;51.072;3.712;2023-01-25T11:13:22;4.10;99.90
22925;DHT22;11628;51.072;3.712;2023-01-25T11:15:53;4.00;99.90
22925;DHT22;11628;51.072;3.712;2023-01-25T11:18:28;4.10;99.90
22925;DHT22;11628;51.072;3.712;2023-01-25T11:23:29;4.20;99.90
22925;DHT22;11628;51.072;3.712;2023-01-25T11:26:20;4.30;99.90
22925;DHT22;11628;51.072;3.712;2023-01-25T11:28:46;4.20;99.90
22925;DHT22;11628;51.072;3.712;2023-01-25T11:31:16;3.80;99.90
22925;DHT22;11628;51.072;3.712;2023-01-25T11:33:43;3.80;99.90
22925;DHT22;11628;51.072;3.712;2023-01-25T11:38:48;3.70;99.90
22925;DHT22;11628;51.072;3.712;2023-01-25T11:41:25;3.50;99.90
22925;DHT22;11628;51.072;3.712;2023-01-25T11:46:55;3.60;99.90
22925;DHT22;11628;51.072;3.712;2023-01-25T11:49:53;3.60;99.90
22925;DHT22;11628;51.072;3.712;2023-01-25T11:52:48;3.30;99.90
22925;DHT22;11628;51.072;3.712;2023-01-25T11:58:23;3.50;99.90
22925;DHT22;11628;51.072;3.712;2023-01-25T12:03:50;4.10;99.90
22925;DHT22;11628;51.072;3.712;2023-01-25T12:14:42;4.40;99.90
22925;DHT22;11628;51.072;3.712;2023-01-25T12:25:23;3.00;99.90
22925;DHT22;11628;51.072;3.712;2023-01-25T12:33:18;3.40;99.90
22925;DHT22;11628;51.072;3.712;2023-01-25T12:35:51;3.50;99.90
22925;DHT22;11628;51.072;3.712;2023-01-25T12:49:54;3.20;99.90
22925;DHT22;11628;51.072;3.712;2023-01-25T12:55:15;3.10;99.90
22925;DHT22;11628;51.072;3.712;2023-01-25T12:58:15;2.90;99.90
22925;DHT22;11628;51.072;3.712;2023-01-25T13:03:34;2.90;99.90
22925;DHT22;11628;51.072;3.712;2023-01-25T13:06:08;3.20;99.90
22925;DHT22;11628;51.072;3.712;2023-01-25T13:11:44;3.80;99.90
22925;DHT22;11628;51.072;3.712;2023-01-25T13:16:47;3.80;99.90
22925;DHT22;11628;51.072;3.712;2023-01-25T13:19:37;3.80;99.90
22925;DHT22;11628;51.072;3.712;2023-01-25T13:22:03;4.00;99.90
22925;DHT22;11628;51.072;3.712;2023-01-25T13:24:32;3.90;99.90
22925;DHT22;11628;51.072;3.712;2023-01-25T13:27:02;3.70;99.90
22925;DHT22;11628;51.072;3.712;2023-01-25T13:44:55;2.90;99.90
22925;DHT22;11628;51.072;3.712;2023-01-25T13:47:32;3.10;99.90
22925;DHT22;11628;51.072;3.712;2023-01-25T13:50:19;3.30;99.90
22925;DHT22;11628;51.072;3.712;2023-01-25T13:53:03;3.50;99.90
22925;DHT22;11628;51.072;3.712;2023-01-25T13:55:38;3.30;99.90
22925;DHT22;11628;51.072;3.712;2023-01-25T14:00:47;3.60;99.90
22925;DHT22;11628;51.072;3.712;2023-01-25T14:03:14;3.80;99.90
22925;DHT22;11628;51.072;3.712;2023-01-25T14:05:48;3.90;99.90
22925;DHT22;11628;51.072;3.712;2023-01-25T14:08:17;4.00;99.90
22925;DHT22;11628;51.072;3.712;2023-01-25T14:10:44;3.80;99.90
22925;DHT22;11628;51.072;3.712;2023-01-25T14:13:13;4.00;99.90
22925;DHT22;11628;51.072;3.712;2023-01-25T14:15:39;4.00;99.90
22925;DHT22;11628;51.072;3.712;2023-01-25T14:18:15;4.10;99.90
22925;DHT22;11628;51.072;3.712;2023-01-25T14:20:48;4.00;99.90
22925;DHT22;11628;51.072;3.712;2023-01-25T14:23:27;3.90;99.90
22925;DHT22;11628;51.072;3.712;2023-01-25T14:25:55;3.80;99.90
22925;DHT22;11628;51.072;3.712;2023-01-25T14:28:24;4.10;99.90
22925;DHT22;11628;51.072;3.712;2023-01-25T14:30:52;4.10;99.90
22925;DHT22;11628;51.072;3.712;2023-01-25T14:33:31;4.10;99.90
22925;DHT22;11628;51.072;3.712;2023-01-25T14:36:28;4.20;99.90
22925;DHT22;11628;51.072;3.712;2023-01-25T14:38:54;4.30;99.90
22925;DHT22;11628;51.072;3.712;2023-01-25T14:41:32;4.10;99.90
22925;DHT22;11628;51.072;3.712;2023-01-25T14:44:10;4.10;99.90
22925;DHT22;11628;51.072;3.712;2023-01-25T14:46:38;3.50;99.90
22925;DHT22;11628;51.072;3.712;2023-01-25T14:51:50;3.00;99.90
22925;DHT22;11628;51.072;3.712;2023-01-25T14:54:16;3.10;99.90
22925;DHT22;11628;51.072;3.712;2023-01-25T14:56:44;3.30;99.90
22925;DHT22;11628;51.072;3.712;2023-01-25T15:02:00;3.70;99.90
22925;DHT22;11628;51.072;3.712;2023-01-25T15:04:28;3.90;99.90
22925;DHT22;11628;51.072;3.712;2023-01-25T15:06:55;3.80;99.90
22925;DHT22;11628;51.072;3.712;2023-01-25T15:12:04;3.80;99.90
22925;DHT22;11628;51.072;3.712;2023-01-25T15:14:31;3.90;99.90
22925;DHT22;11628;51.072;3.712;2023-01-25T15:16:57;4.00;99.90
22925;DHT22;11628;51.072;3.712;2023-01-25T15:19:28;4.00;99.90
22925;DHT22;11628;51.072;3.712;2023-01-25T15:21:56;3.80;99.90
22925;DHT22;11628;51.072;3.712;2023-01-25T15:24:23;3.80;99.90
22925;DHT22;11628;51.072;3.712;2023-01-25T15:26:51;3.60;99.90
22925;DHT22;11628;51.072;3.712;2023-01-25T15:29:23;3.50;99.90
22925;DHT22;11628;51.072;3.712;2023-01-25T15:31:53;3.50;99.90
22925;DHT22;11628;51.072;3.712;2023-01-25T15:34:23;3.50;99.90
22925;DHT22;11628;51.072;3.712;2023-01-25T15:36:49;3.50;99.90
22925;DHT22;11628;51.072;3.712;2023-01-25T15:39:17;3.50;99.90
22925;DHT22;11628;51.072;3.712;2023-01-25T15:41:43;3.20;99.90
22925;DHT22;11628;51.072;3.712;2023-01-25T15:44:10;2.90;99.90
22925;DHT22;11628;51.072;3.712;2023-01-25T15:46:41;2.70;99.90
22925;DHT22;11628;51.072;3.712;2023-01-25T15:49:13;2.50;99.90
22925;DHT22;11628;51.072;3.712;2023-01-25T15:51:41;2.50;99.90
22925;DHT22;11628;51.072;3.712;2023-01-25T15:54:07;2.50;99.90
22925;DHT22;11628;51.072;3.712;2023-01-25T15:56:35;2.50;99.90
22925;DHT22;11628;51.072;3.712;2023-01-25T15:59:06;2.60;99.90
22925;DHT22;11628;51.072;3.712;2023-01-25T16:01:33;2.90;99.90
22925;DHT22;11628;51.072;3.712;2023-01-25T16:03:59;2.80;99.90
22925;DHT22;11628;51.072;3.712;2023-01-25T16:06:36;2.70;99.90
22925;DHT22;11628;51.072;3.712;2023-01-25T16:09:25;2.70;99.90
22925;DHT22;11628;51.072;3.712;2023-01-25T16:11:57;2.60;99.90
22925;DHT22;11628;51.072;3.712;2023-01-25T16:14:24;2.50;99.90
22925;DHT22;11628;51.072;3.712;2023-01-25T16:16:56;2.40;99.90
22925;DHT22;11628;51.072;3.712;2023-01-25T16:19:23;2.30;99.90
22925;DHT22;11628;51.072;3.712;2023-01-25T16:21:49;2.30;99.90
22925;DHT22;11628;51.072;3.712;2023-01-25T16:24:16;2.40;99.90
22925;DHT22;11628;51.072;3.712;2023-01-25T16:26:45;2.40;99.90
22925;DHT22;11628;51.072;3.712;2023-01-25T16:29:12;2.30;99.90
22925;DHT22;11628;51.072;3.712;2023-01-25T16:31:38;2.30;99.90
22925;DHT22;11628;51.072;3.712;2023-01-25T16:34:03;2.30;99.90
22925;DHT22;11628;51.072;3.712;2023-01-25T16:36:29;2.30;99.90
22925;DHT22;11628;51.072;3.712;2023-01-25T16:39:10;2.30;99.90
22925;DHT22;11628;51.072;3.712;2023-01-25T16:41:36;2.30;99.90
22925;DHT22;11628;51.072;3.712;2023-01-25T16:44:02;2.30;99.90
22925;DHT22;11628;51.072;3.712;2023-01-25T16:46:29;2.30;99.90
22925;DHT22;11628;51.072;3.712;2023-01-25T16:48:56;2.30;99.90
22925;DHT22;11628;51.072;3.712;2023-01-25T16:51:25;2.30;99.90
22925;DHT22;11628;51.072;3.712;2023-01-25T16:53:55;2.20;99.90
22925;DHT22;11628;51.072;3.712;2023-01-25T16:56:26;2.20;99.90
22925;DHT22;11628;51.072;3.712;2023-01-25T16:58:55;2.20;99.90
22925;DHT22;11628;51.072;3.712;2023-01-25T17:01:22;2.30;99.90
22925;DHT22;11628;51.072;3.712;2023-01-25T17:03:49;2.30;99.90
22925;DHT22;11628;51.072;3.712;2023-01-25T17:06:20;2.30;99.90
22925;DHT22;11628;51.072;3.712;2023-01-25T17:08:47;2.30;99.90
22925;DHT22;11628;51.072;3.712;2023-01-25T17:11:13;2.20;99.90
22925;DHT22;11628;51.072;3.712;2023-01-25T17:13:39;2.10;99.90
22925;DHT22;11628;51.072;3.712;2023-01-25T17:16:06;2.20;99.90
22925;DHT22;11628;51.072;3.712;2023-01-25T17:18:32;2.20;99.90
22925;DHT22;11628;51.072;3.712;2023-01-25T17:21:03;2.20;99.90
22925;DHT22;11628;51.072;3.712;2023-01-25T17:23:35;2.20;99.90
22925;DHT22;11628;51.072;3.712;2023-01-25T17:26:15;2.20;99.90
22925;DHT22;11628;51.072;3.712;2023-01-25T17:28:42;2.10;99.90
22925;DHT22;11628;51.072;3.712;2023-01-25T17:31:22;2.20;99.90
22925;DHT22;11628;51.072;3.712;2023-01-25T17:33:49;2.30;99.90
22925;DHT22;11628;51.072;3.712;2023-01-25T17:36:15;2.30;99.90
22925;DHT22;11628;51.072;3.712;2023-01-25T17:38:42;2.30;99.90
22925;DHT22;11628;51.072;3.712;2023-01-25T17:41:10;2.20;99.90
22925;DHT22;11628;51.072;3.712;2023-01-25T17:43:37;2.30;99.90
22925;DHT22;11628;51.072;3.712;2023-01-25T17:46:20;2.20;99.90
22925;DHT22;11628;51.072;3.712;2023-01-25T17:48:46;2.30;99.90
22925;DHT22;11628;51.072;3.712;2023-01-25T17:51:14;2.30;99.90